createdAt,value
2017-12-20T00:02:00.668Z,4.71
2017-12-20T00:04:29.940Z,4.62
2017-12-20T00:06:59.037Z,4.42
2017-12-20T00:09:27.371Z,4.46
2017-12-20T00:11:55.704Z,4.40
2017-12-20T00:14:24.030Z,4.40
2017-12-20T00:16:52.360Z,4.38
2017-12-20T00:19:20.700Z,4.44
2017-12-20T00:21:49.041Z,4.46
2017-12-20T00:24:17.380Z,4.33
2017-12-20T00:26:45.724Z,4.24
2017-12-20T00:29:14.060Z,4.29
2017-12-20T00:31:42.404Z,4.36
2017-12-20T00:34:10.896Z,4.24
2017-12-20T00:36:40.857Z,4.23
2017-12-20T00:39:09.179Z,4.27
2017-12-20T00:41:37.519Z,4.21
2017-12-20T00:44:05.840Z,4.29
2017-12-20T00:46:34.946Z,4.40
2017-12-20T00:49:03.281Z,4.25
2017-12-20T00:51:31.633Z,4.31
2017-12-20T00:53:59.983Z,4.27
2017-12-20T00:56:28.309Z,4.30
2017-12-20T00:58:56.639Z,4.45
2017-12-20T01:01:25.038Z,4.58
2017-12-20T01:03:53.358Z,4.44
2017-12-20T01:06:21.693Z,4.66
2017-12-20T01:08:50.024Z,4.78
2017-12-20T01:11:19.107Z,4.90
2017-12-20T01:13:47.456Z,4.83
2017-12-20T01:16:16.559Z,4.81
2017-12-20T01:18:45.777Z,4.85
2017-12-20T01:21:14.103Z,4.62
2017-12-20T01:23:42.427Z,4.77
2017-12-20T01:26:10.778Z,4.83
2017-12-20T01:28:39.076Z,4.96
2017-12-20T01:31:07.390Z,4.79
2017-12-20T01:33:35.722Z,4.64
2017-12-20T01:36:04.053Z,4.85
2017-12-20T01:38:32.390Z,4.85
2017-12-20T01:41:00.727Z,4.96
2017-12-20T01:43:29.042Z,5.04
2017-12-20T01:45:57.385Z,4.83
2017-12-20T01:48:25.712Z,4.98
2017-12-20T01:50:54.059Z,4.99
2017-12-20T01:53:22.381Z,5.01
2017-12-20T01:55:50.712Z,5.08
2017-12-20T01:58:19.036Z,5.02
2017-12-20T02:00:48.134Z,5.09
2017-12-20T02:03:17.210Z,5.16
2017-12-20T02:05:45.522Z,5.00
2017-12-20T02:08:13.861Z,5.06
2017-12-20T02:10:42.191Z,5.08
2017-12-20T02:13:10.521Z,5.17
2017-12-20T02:15:38.856Z,5.21
2017-12-20T02:18:07.185Z,4.79
2017-12-20T02:20:35.521Z,4.94
2017-12-20T02:23:03.861Z,4.96
2017-12-20T02:25:32.198Z,4.98
2017-12-20T02:28:00.544Z,4.77
2017-12-20T02:30:28.885Z,4.85
2017-12-20T02:32:57.966Z,4.75
2017-12-20T02:35:26.297Z,4.90
2017-12-20T02:37:54.644Z,5.02
2017-12-20T02:40:22.989Z,5.06
2017-12-20T02:42:51.320Z,5.12
2017-12-20T02:45:19.665Z,5.11
2017-12-20T02:47:48.005Z,5.13
2017-12-20T02:50:16.343Z,5.19
2017-12-20T02:52:44.652Z,5.20
2017-12-20T02:55:12.989Z,5.22
2017-12-20T02:57:41.316Z,5.28
2017-12-20T03:00:09.657Z,5.39
2017-12-20T03:02:37.990Z,5.46
2017-12-20T03:05:06.330Z,5.48
2017-12-20T03:07:34.668Z,5.49
2017-12-20T03:10:02.999Z,5.53
2017-12-20T03:12:31.332Z,5.51
2017-12-20T03:14:59.665Z,5.30
2017-12-20T03:17:28.005Z,5.12
2017-12-20T03:19:56.395Z,5.21
2017-12-20T03:22:24.726Z,5.20
2017-12-20T03:24:53.070Z,5.06
2017-12-20T03:27:21.417Z,5.06
2017-12-20T03:29:49.753Z,5.23
2017-12-20T03:32:18.095Z,5.28
2017-12-20T03:34:46.449Z,5.34
2017-12-20T03:37:14.793Z,5.31
2017-12-20T03:39:43.891Z,5.29
2017-12-20T03:42:12.210Z,5.37
2017-12-20T03:44:40.539Z,5.28
2017-12-20T03:47:09.637Z,5.02
2017-12-20T03:49:37.973Z,5.06
2017-12-20T03:52:06.293Z,5.02
2017-12-20T03:54:35.406Z,5.11
2017-12-20T03:57:03.732Z,5.15
2017-12-20T03:59:32.061Z,5.14
2017-12-20T04:02:00.377Z,5.24
2017-12-20T04:04:28.732Z,5.27
2017-12-20T04:06:57.068Z,5.27
2017-12-20T04:09:25.396Z,5.32
2017-12-20T04:11:53.719Z,5.31
2017-12-20T04:14:22.072Z,5.36
2017-12-20T04:16:50.394Z,5.14
2017-12-20T04:19:19.580Z,5.06
2017-12-20T04:21:47.914Z,5.06
2017-12-20T04:24:16.249Z,5.23
2017-12-20T04:26:44.887Z,5.09
2017-12-20T04:29:13.210Z,5.08
2017-12-20T04:31:41.535Z,5.16
2017-12-20T04:34:09.899Z,5.27
2017-12-20T04:36:38.244Z,5.26
2017-12-20T04:39:06.591Z,5.30
2017-12-20T04:41:34.916Z,5.18
2017-12-20T04:44:04.321Z,5.20
2017-12-20T04:46:32.666Z,5.30
2017-12-20T04:49:01.021Z,5.35
2017-12-20T04:51:29.347Z,5.35
2017-12-20T04:53:57.685Z,5.18
2017-12-20T04:56:26.005Z,5.10
2017-12-20T04:58:54.318Z,5.21
2017-12-20T05:01:22.660Z,5.13
2017-12-20T05:03:51.010Z,5.21
2017-12-20T05:06:20.125Z,5.19
2017-12-20T05:08:48.481Z,5.22
2017-12-20T05:11:17.567Z,5.16
2017-12-20T05:13:45.927Z,4.88
2017-12-20T05:16:14.258Z,4.82
2017-12-20T05:18:42.575Z,4.60
2017-12-20T05:21:10.913Z,4.83
2017-12-20T05:23:39.229Z,4.88
2017-12-20T05:26:07.571Z,5.09
2017-12-20T05:28:35.903Z,5.15
2017-12-20T05:31:04.227Z,5.18
2017-12-20T05:33:32.567Z,5.21
2017-12-20T05:36:01.669Z,5.17
2017-12-20T05:38:29.995Z,5.17
2017-12-20T05:40:58.341Z,5.16
2017-12-20T05:43:26.667Z,5.26
2017-12-20T05:45:54.990Z,5.26
2017-12-20T05:48:23.321Z,5.28
2017-12-20T05:50:51.654Z,5.22
2017-12-20T05:53:20.471Z,5.25
2017-12-20T05:55:48.826Z,5.17
2017-12-20T05:58:17.165Z,5.23
2017-12-20T06:00:46.487Z,4.96
2017-12-20T06:03:14.821Z,5.01
2017-12-20T06:05:43.736Z,5.06
2017-12-20T06:08:12.077Z,4.97
2017-12-20T06:10:40.406Z,4.92
2017-12-20T06:13:09.486Z,4.40
2017-12-20T06:15:37.872Z,4.36
2017-12-20T06:18:06.207Z,4.63
2017-12-20T06:20:34.540Z,4.35
2017-12-20T06:23:02.974Z,4.10
2017-12-20T06:25:31.599Z,4.12
2017-12-20T06:28:00.723Z,4.44
2017-12-20T06:30:29.052Z,4.58
2017-12-20T06:32:57.376Z,4.64
2017-12-20T06:35:25.712Z,4.79
2017-12-20T06:37:54.797Z,4.90
2017-12-20T06:40:23.115Z,4.97
2017-12-20T06:42:51.445Z,5.03
2017-12-20T06:45:19.782Z,4.95
2017-12-20T06:47:48.124Z,5.04
2017-12-20T06:50:16.465Z,5.10
2017-12-20T06:52:44.814Z,5.20
2017-12-20T06:55:13.155Z,5.24
2017-12-20T06:57:42.261Z,5.30
2017-12-20T07:00:10.587Z,5.36
2017-12-20T07:02:38.916Z,5.33
2017-12-20T07:05:07.258Z,5.31
2017-12-20T07:07:35.575Z,5.32
2017-12-20T07:10:03.925Z,5.41
2017-12-20T07:12:33.160Z,5.39
2017-12-20T07:15:01.488Z,5.40
2017-12-20T07:17:29.814Z,5.44
2017-12-20T07:19:58.151Z,5.46
2017-12-20T07:22:26.485Z,5.53
2017-12-20T07:24:54.846Z,5.46
2017-12-20T07:27:23.216Z,5.46
2017-12-20T07:29:51.562Z,5.51
2017-12-20T07:32:19.901Z,5.51
2017-12-20T07:34:48.226Z,5.53
2017-12-20T07:37:16.545Z,5.48
2017-12-20T07:39:44.890Z,5.43
2017-12-20T07:42:13.205Z,5.35
2017-12-20T07:44:41.542Z,5.46
2017-12-20T07:47:10.630Z,5.29
2017-12-20T07:49:38.991Z,5.07
2017-12-20T07:52:07.330Z,5.07
2017-12-20T07:54:35.681Z,5.19
2017-12-20T07:57:04.775Z,5.23
2017-12-20T07:59:33.100Z,5.07
2017-12-20T08:02:01.437Z,5.17
2017-12-20T08:04:29.773Z,5.25
2017-12-20T08:06:58.114Z,5.24
2017-12-20T08:09:26.484Z,5.17
2017-12-20T08:11:54.815Z,4.37
2017-12-20T08:14:25.900Z,4.47
2017-12-20T08:16:54.223Z,4.33
2017-12-20T08:19:22.566Z,4.12
2017-12-20T08:21:50.905Z,4.34
2017-12-20T08:24:19.996Z,4.54
2017-12-20T08:26:48.339Z,4.72
2017-12-20T08:29:16.669Z,4.93
2017-12-20T08:31:45.772Z,5.01
2017-12-20T08:34:14.103Z,5.12
2017-12-20T08:36:42.795Z,5.29
2017-12-20T08:39:11.128Z,5.36
2017-12-20T08:41:39.474Z,5.38
2017-12-20T08:44:08.551Z,5.42
2017-12-20T08:46:36.896Z,5.15
2017-12-20T08:49:05.275Z,5.17
2017-12-20T08:51:33.625Z,5.22
2017-12-20T08:54:01.961Z,5.35
2017-12-20T08:56:30.307Z,5.49
2017-12-20T08:58:58.653Z,5.57
2017-12-20T09:01:26.980Z,5.73
2017-12-20T09:03:55.308Z,5.82
2017-12-20T09:06:23.669Z,5.77
2017-12-20T09:08:52.008Z,5.84
2017-12-20T09:11:20.337Z,5.93
2017-12-20T09:13:48.669Z,6.04
2017-12-20T09:16:16.998Z,6.13
2017-12-20T09:18:45.339Z,6.12
2017-12-20T09:21:13.679Z,5.95
2017-12-20T09:23:43.113Z,5.82
2017-12-20T09:26:11.457Z,5.96
2017-12-20T09:28:39.798Z,5.89
2017-12-20T09:31:08.141Z,5.66
2017-12-20T09:33:36.481Z,5.76
2017-12-20T09:36:04.795Z,5.57
2017-12-20T09:38:33.118Z,5.57
2017-12-20T09:41:01.443Z,5.71
2017-12-20T09:43:29.755Z,5.89
2017-12-20T09:45:58.086Z,6.04
2017-12-20T09:48:26.406Z,6.21
2017-12-20T09:50:54.755Z,6.30
2017-12-20T09:53:23.103Z,6.39
2017-12-20T09:55:51.427Z,6.51
2017-12-20T09:58:19.753Z,6.19
2017-12-20T10:00:48.084Z,6.06
2017-12-20T10:03:16.618Z,6.03
2017-12-20T10:05:44.935Z,6.05
2017-12-20T10:08:13.272Z,6.07
2017-12-20T10:10:41.588Z,5.96
2017-12-20T10:13:09.936Z,6.15
2017-12-20T10:15:38.270Z,6.11
2017-12-20T10:18:06.593Z,6.31
2017-12-20T10:20:34.919Z,5.77
2017-12-20T10:23:04.015Z,5.87
2017-12-20T10:25:32.351Z,6.05
2017-12-20T10:28:00.763Z,5.68
2017-12-20T10:30:29.869Z,5.89
2017-12-20T10:32:58.971Z,6.06
2017-12-20T10:35:28.064Z,6.21
2017-12-20T10:37:57.147Z,6.15
2017-12-20T10:40:25.518Z,6.08
2017-12-20T10:42:54.927Z,6.32
2017-12-20T10:45:24.036Z,6.22
2017-12-20T10:47:52.361Z,6.35
2017-12-20T10:50:20.704Z,6.45
2017-12-20T10:52:49.049Z,6.54
2017-12-20T10:55:17.373Z,6.23
2017-12-20T10:57:45.686Z,6.41
2017-12-20T11:00:14.029Z,6.17
2017-12-20T11:02:42.354Z,5.96
2017-12-20T11:05:10.686Z,5.85
2017-12-20T11:07:39.789Z,6.00
2017-12-20T11:10:08.117Z,5.98
2017-12-20T11:12:37.217Z,5.97
2017-12-20T11:15:05.556Z,6.07
2017-12-20T11:17:33.876Z,5.98
2017-12-20T11:20:02.228Z,5.91
2017-12-20T11:22:30.529Z,5.87
2017-12-20T11:24:59.635Z,5.85
2017-12-20T11:27:27.954Z,5.91
2017-12-20T11:29:56.285Z,5.92
2017-12-20T11:32:25.384Z,5.75
2017-12-20T11:34:53.744Z,5.73
2017-12-20T11:37:22.080Z,5.78
2017-12-20T11:39:50.418Z,5.62
2017-12-20T11:42:18.756Z,5.78
2017-12-20T11:44:47.091Z,5.91
2017-12-20T11:47:15.414Z,5.98
2017-12-20T11:49:43.749Z,5.84
2017-12-20T11:52:12.201Z,5.83
2017-12-20T11:54:40.540Z,5.93
2017-12-20T11:57:08.850Z,5.95
2017-12-20T11:59:37.965Z,6.16
2017-12-20T12:02:06.286Z,6.17
2017-12-20T12:04:34.603Z,6.18
2017-12-20T12:07:02.922Z,6.20
2017-12-20T12:09:31.260Z,6.08
2017-12-20T12:12:00.349Z,6.26
2017-12-20T12:14:29.649Z,6.23
2017-12-20T12:16:57.980Z,6.23
2017-12-20T12:19:26.302Z,6.11
2017-12-20T12:21:55.400Z,6.16
2017-12-20T12:24:23.737Z,6.37
2017-12-20T12:26:52.050Z,6.50
2017-12-20T12:29:21.150Z,6.53
2017-12-20T12:31:50.226Z,6.49
2017-12-20T12:34:18.564Z,6.49
2017-12-20T12:36:46.920Z,6.40
2017-12-20T12:39:15.237Z,6.61
2017-12-20T12:41:43.558Z,6.75
2017-12-20T12:44:12.673Z,6.39
2017-12-20T12:46:41.500Z,6.48
2017-12-20T12:49:09.816Z,6.50
2017-12-20T12:51:38.161Z,6.58
2017-12-20T12:54:06.491Z,6.58
2017-12-20T12:56:34.833Z,6.61
2017-12-20T12:59:03.157Z,6.61
2017-12-20T13:01:31.541Z,6.56
2017-12-20T13:03:59.864Z,6.42
2017-12-20T13:06:28.191Z,6.41
2017-12-20T13:08:56.572Z,6.42
2017-12-20T13:11:24.907Z,6.37
2017-12-20T13:13:53.223Z,6.43
2017-12-20T13:16:21.545Z,6.02
2017-12-20T13:18:49.859Z,6.15
2017-12-20T13:21:18.179Z,5.98
2017-12-20T13:23:46.494Z,5.97
2017-12-20T13:26:14.874Z,5.92
2017-12-20T13:28:43.201Z,5.91
2017-12-20T13:31:11.543Z,5.75
2017-12-20T13:33:39.870Z,5.92
2017-12-20T13:36:08.221Z,5.95
2017-12-20T13:38:36.548Z,5.96
2017-12-20T13:41:04.896Z,6.03
2017-12-20T13:43:33.231Z,6.20
2017-12-20T13:46:01.586Z,6.25
2017-12-20T13:48:29.933Z,6.16
2017-12-20T13:50:58.270Z,6.37
2017-12-20T13:53:26.596Z,6.43
2017-12-20T13:55:54.916Z,6.24
2017-12-20T13:58:24.013Z,6.21
2017-12-20T14:00:52.394Z,5.87
2017-12-20T14:03:20.719Z,6.04
2017-12-20T14:05:49.062Z,5.88
2017-12-20T14:08:17.396Z,6.09
2017-12-20T14:10:46.518Z,6.18
2017-12-20T14:13:14.863Z,6.02
2017-12-20T14:15:43.203Z,5.97
2017-12-20T14:18:11.523Z,5.89
2017-12-20T14:20:39.859Z,6.14
2017-12-20T14:23:08.187Z,6.09
2017-12-20T14:25:37.297Z,6.12
2017-12-20T14:28:06.408Z,6.22
2017-12-20T14:30:34.745Z,5.91
2017-12-20T14:33:03.097Z,5.95
2017-12-20T14:35:31.428Z,5.92
2017-12-20T14:37:59.752Z,5.90
2017-12-20T14:40:28.075Z,5.82
2017-12-20T14:42:56.403Z,5.83
2017-12-20T14:45:25.596Z,5.84
2017-12-20T14:47:53.934Z,5.88
2017-12-20T14:50:23.059Z,5.77
2017-12-20T14:52:51.392Z,5.68
2017-12-20T14:55:19.718Z,5.84
2017-12-20T14:57:48.063Z,5.65
2017-12-20T15:00:17.329Z,5.62
2017-12-20T15:02:45.666Z,5.61
2017-12-20T15:05:14.002Z,5.66
2017-12-20T15:07:42.348Z,5.80
2017-12-20T15:10:10.675Z,5.69
2017-12-20T15:12:38.999Z,5.78
2017-12-20T15:15:07.335Z,5.88
2017-12-20T15:17:35.692Z,5.57
2017-12-20T15:20:04.787Z,5.73
2017-12-20T15:22:33.875Z,5.77
2017-12-20T15:25:02.223Z,5.55
2017-12-20T15:27:30.548Z,5.67
2017-12-20T15:29:59.669Z,5.70
2017-12-20T15:32:27.993Z,5.83
2017-12-20T15:34:56.338Z,6.04
2017-12-20T15:37:24.659Z,6.08
2017-12-20T15:39:53.009Z,6.16
2017-12-20T15:42:21.323Z,6.14
2017-12-20T15:44:50.403Z,6.18
2017-12-20T15:47:18.737Z,6.31
2017-12-20T15:49:47.056Z,6.31
2017-12-20T15:52:15.400Z,6.40
2017-12-20T15:54:43.722Z,6.52
2017-12-20T15:57:12.035Z,6.57
2017-12-20T15:59:40.362Z,6.63
2017-12-20T16:02:08.702Z,6.63
2017-12-20T16:04:37.018Z,6.16
2017-12-20T16:07:05.346Z,6.19
2017-12-20T16:09:34.515Z,6.12
2017-12-20T16:12:02.836Z,6.25
2017-12-20T16:14:31.165Z,6.35
2017-12-20T16:17:00.238Z,6.50
2017-12-20T16:19:28.569Z,6.56
2017-12-20T16:21:56.894Z,6.62
2017-12-20T16:24:25.272Z,6.50
2017-12-20T16:26:53.643Z,6.30
2017-12-20T16:29:21.979Z,6.32
2017-12-20T16:31:50.328Z,6.30
2017-12-20T16:34:18.676Z,6.37
2017-12-20T16:36:47.009Z,6.35
2017-12-20T16:39:15.350Z,6.35
2017-12-20T16:41:43.692Z,6.20
2017-12-20T16:44:13.007Z,6.19
2017-12-20T16:46:41.354Z,6.30
2017-12-20T16:49:09.695Z,6.38
2017-12-20T16:51:38.797Z,6.43
2017-12-20T16:54:08.057Z,6.52
2017-12-20T16:56:36.390Z,6.49
2017-12-20T16:59:04.706Z,6.55
2017-12-20T17:01:33.053Z,6.50
2017-12-20T17:04:06.600Z,6.50
2017-12-20T17:06:34.932Z,6.57
2017-12-20T17:09:03.261Z,6.63
2017-12-20T17:11:31.613Z,6.40
2017-12-20T17:13:59.937Z,6.50
2017-12-20T17:16:29.101Z,6.57
2017-12-20T17:18:57.425Z,6.33
2017-12-20T17:21:25.764Z,6.07
2017-12-20T17:23:54.118Z,6.19
2017-12-20T17:26:22.444Z,6.25
2017-12-20T17:28:51.530Z,6.13
2017-12-20T17:31:19.845Z,6.20
2017-12-20T17:33:48.183Z,6.25
2017-12-20T17:36:17.375Z,6.32
2017-12-20T17:38:45.733Z,6.27
2017-12-20T17:41:15.123Z,5.78
2017-12-20T17:43:43.485Z,5.97
2017-12-20T17:46:11.808Z,5.86
2017-12-20T17:48:40.270Z,5.84
2017-12-20T17:51:08.716Z,6.02
2017-12-20T17:53:37.073Z,6.11
2017-12-20T17:56:05.621Z,6.19
2017-12-20T17:58:34.044Z,6.26
2017-12-20T18:01:02.411Z,6.31
2017-12-20T18:03:31.024Z,6.39
2017-12-20T18:05:59.406Z,6.37
2017-12-20T18:08:27.740Z,6.43
2017-12-20T18:10:56.082Z,6.49
2017-12-20T18:13:24.493Z,6.36
2017-12-20T18:15:52.843Z,5.81
2017-12-20T18:18:21.179Z,5.70
2017-12-20T18:20:49.572Z,5.92
2017-12-20T18:23:18.059Z,6.04
2017-12-20T18:25:46.618Z,6.09
2017-12-20T18:28:14.979Z,6.07
2017-12-20T18:30:43.350Z,6.12
2017-12-20T18:33:12.480Z,5.91
2017-12-20T18:35:40.995Z,5.81
2017-12-20T18:38:10.354Z,5.91
2017-12-20T18:40:38.773Z,5.85
2017-12-20T18:43:07.223Z,5.84
2017-12-20T18:45:36.110Z,5.82
2017-12-20T18:48:04.735Z,6.01
2017-12-20T18:50:34.088Z,5.94
2017-12-20T18:53:03.091Z,5.86
2017-12-20T18:55:32.008Z,5.82
2017-12-20T18:58:01.733Z,5.70
2017-12-20T19:00:30.890Z,5.65
2017-12-20T19:02:59.950Z,5.68
2017-12-20T19:05:29.615Z,5.58
2017-12-20T19:07:59.143Z,5.63
2017-12-20T19:10:28.909Z,5.66
2017-12-20T19:12:58.660Z,5.81
2017-12-20T19:15:28.558Z,5.62
2017-12-20T19:17:58.315Z,5.65
2017-12-20T19:20:28.093Z,5.68
2017-12-20T19:22:57.863Z,5.60
2017-12-20T19:25:27.883Z,5.72
2017-12-20T19:27:57.662Z,5.61
2017-12-20T19:30:27.736Z,5.65
2017-12-20T19:32:57.553Z,5.42
2017-12-20T19:35:27.387Z,5.72
2017-12-20T19:37:57.813Z,5.77
2017-12-20T19:40:27.785Z,5.84
2017-12-20T19:42:57.730Z,5.96
2017-12-20T19:45:27.680Z,5.93
2017-12-20T19:47:57.670Z,5.74
2017-12-20T19:50:27.718Z,5.97
2017-12-20T19:52:57.565Z,6.05
2017-12-20T19:55:27.454Z,6.06
2017-12-20T19:57:58.095Z,6.04
2017-12-20T20:00:27.971Z,5.70
2017-12-20T20:02:57.949Z,5.47
2017-12-20T20:05:27.940Z,5.52
2017-12-20T20:07:57.803Z,5.46
2017-12-20T20:10:27.749Z,5.60
2017-12-20T20:12:57.626Z,5.75
2017-12-20T20:15:27.596Z,5.80
2017-12-20T20:17:57.447Z,5.89
2017-12-20T20:20:27.359Z,6.01
2017-12-20T20:22:58.050Z,6.08
2017-12-20T20:25:28.671Z,6.17
2017-12-20T20:27:59.344Z,6.17
2017-12-20T20:30:29.225Z,6.21
2017-12-20T20:32:59.210Z,5.88
2017-12-20T20:35:29.067Z,5.80
2017-12-20T20:47:39.033Z,5.92
2017-12-20T20:50:08.921Z,6.01
2017-12-20T20:52:38.834Z,6.02
2017-12-20T20:55:08.625Z,5.99
2017-12-20T20:57:40.337Z,6.10
2017-12-20T21:00:10.259Z,6.22
2017-12-20T21:02:40.083Z,6.23
2017-12-20T21:05:10.731Z,6.00
2017-12-20T21:07:40.596Z,5.84
2017-12-20T21:10:11.427Z,6.01
2017-12-20T21:12:41.299Z,5.86
2017-12-20T21:15:11.111Z,5.97
2017-12-20T21:17:40.958Z,5.76
2017-12-20T21:20:10.850Z,5.73
2017-12-20T21:22:41.883Z,5.40
2017-12-20T21:25:12.642Z,5.55
2017-12-20T21:27:42.530Z,5.37
2017-12-20T21:30:13.134Z,5.44
2017-12-20T21:32:43.805Z,5.33
2017-12-20T21:35:13.713Z,4.99
2017-12-20T21:37:44.840Z,5.06
2017-12-20T21:40:17.239Z,5.16
2017-12-20T21:42:47.127Z,4.94
2017-12-20T21:45:17.000Z,4.88
2017-12-20T21:47:46.862Z,5.09
2017-12-20T21:50:17.227Z,5.11
2017-12-20T21:52:48.089Z,5.32
2017-12-20T21:55:23.778Z,5.45
2017-12-20T21:58:09.391Z,5.17
2017-12-20T22:00:39.280Z,5.44
2017-12-20T22:03:09.088Z,5.63
2017-12-20T22:05:39.070Z,5.72
2017-12-20T22:08:08.877Z,5.75
2017-12-20T22:10:38.796Z,5.74
2017-12-20T22:13:09.703Z,5.57
2017-12-20T22:15:38.803Z,5.36
2017-12-20T22:18:07.880Z,4.62
2017-12-20T22:20:36.500Z,4.68
2017-12-20T22:23:04.895Z,4.98
2017-12-20T22:25:33.248Z,4.99
2017-12-20T22:28:01.603Z,5.13
2017-12-20T22:30:29.972Z,5.32
2017-12-20T22:32:58.295Z,5.53
2017-12-20T22:35:27.402Z,5.59
2017-12-20T22:37:55.723Z,5.48
2017-12-20T22:40:24.078Z,5.59
2017-12-20T22:42:52.404Z,5.69
2017-12-20T22:45:20.758Z,5.78
2017-12-20T22:47:49.071Z,5.80
2017-12-20T22:50:17.444Z,5.91
2017-12-20T22:52:45.763Z,5.84
2017-12-20T22:55:14.112Z,5.98
2017-12-20T22:57:43.238Z,5.99
2017-12-20T23:00:11.618Z,6.05
2017-12-20T23:02:39.922Z,6.12
2017-12-20T23:05:08.278Z,6.12
2017-12-20T23:07:36.609Z,6.08
2017-12-20T23:10:04.932Z,5.88
2017-12-20T23:12:33.272Z,5.79
2017-12-20T23:15:02.367Z,5.90
2017-12-20T23:17:30.705Z,6.00
2017-12-20T23:19:59.056Z,6.01
2017-12-20T23:22:27.371Z,5.97
2017-12-20T23:24:55.694Z,5.99
2017-12-20T23:27:24.548Z,6.03
2017-12-20T23:29:52.872Z,5.97
2017-12-20T23:32:21.209Z,5.45
2017-12-20T23:34:50.343Z,4.93
2017-12-20T23:37:18.701Z,5.05
2017-12-20T23:39:47.032Z,5.08
2017-12-20T23:42:15.359Z,5.45
2017-12-20T23:44:43.677Z,5.51
2017-12-20T23:47:12.013Z,5.67
2017-12-20T23:49:41.131Z,5.85
2017-12-20T23:52:09.443Z,6.01
2017-12-20T23:54:37.764Z,6.12
2017-12-20T23:57:06.087Z,6.15
2017-12-20T23:59:34.991Z,6.17
